Time;durP1;ratioP1;P1;durP2;ratioP2;P2;SDS_P1;SDS_P2;PMS_P1;PMS_P2;Temp;Humidity;BMP_temperature;BMP_pressure;BME280_temperature;BME280_humidity;BME280_pressure;Samples;Min_cycle;Max_cycle;Signal;HPM_P1;HPM_P2
2022/05/01 00:02:09;;;;;;;9.67;6.37;;;;;;;;;;8164585;28;20047;-68
2022/05/01 00:06:10;;;;;;;9.50;5.60;;;;;;;;;;8164239;28;20283;-69
2022/05/01 00:10:10;;;;;;;8.95;5.82;;;;;;;;;;8167241;28;20036;-68
2022/05/01 00:14:10;;;;;;;6.97;5.25;;;;;;;;;;8167262;28;20030;-69
2022/05/01 00:18:11;;;;;;;7.53;5.97;;;;;;;;;;8165760;28;20035;-68
2022/05/01 00:22:11;;;;;;;15.27;6.35;;;;;;;;;;8164356;28;20030;-68
2022/05/01 00:26:12;;;;;;;7.03;5.43;;;;;;;;;;8164798;28;20111;-69
2022/05/01 00:30:13;;;;;;;8.20;6.43;;;;;;;;;;8161119;28;20037;-69
2022/05/01 00:38:33;;;;;;;7.00;5.75;;;;;;;;;;8165968;28;20062;-69
2022/05/01 00:42:33;;;;;;;8.10;5.32;;;;;;;;;;8162613;28;20692;-68
2022/05/01 00:46:52;;;;;;;6.93;4.93;;;;;;;;;;8163805;28;20035;-69
2022/05/01 00:50:53;;;;;;;7.82;5.80;;;;;;;;;;8166952;28;20141;-69
2022/05/01 00:54:53;;;;;;;8.90;5.97;;;;;;;;;;8166551;28;20086;-69
2022/05/01 00:58:53;;;;;;;7.22;5.40;;;;;;;;;;8163354;28;20031;-69
2022/05/01 01:02:54;;;;;;;8.23;6.00;;;;;;;;;;8160761;28;20137;-69
2022/05/01 01:06:54;;;;;;;9.38;5.53;;;;;;;;;;8160567;28;20310;-69
2022/05/01 01:10:54;;;;;;;6.47;5.63;;;;;;;;;;8159377;28;20033;-69
2022/05/01 01:14:54;;;;;;;7.13;5.20;;;;;;;;;;8161910;28;20054;-68
2022/05/01 01:18:54;;;;;;;7.53;5.03;;;;;;;;;;8167006;28;20032;-69
2022/05/01 01:22:58;;;;;;;8.73;5.63;;;;;;;;;;8166782;28;20468;-68
2022/05/01 01:26:59;;;;;;;7.25;5.63;;;;;;;;;;8165529;28;20893;-69
2022/05/01 01:35:21;;;;;;;8.70;6.10;;;;;;;;;;8161338;28;20046;-69
2022/05/01 01:39:23;;;;;;;6.38;5.65;;;;;;;;;;8164413;28;20030;-68
2022/05/01 01:43:31;;;;;;;6.68;5.22;;;;;;;;;;8162456;28;21206;-69
2022/05/01 01:47:31;;;;;;;6.82;4.80;;;;;;;;;;8161027;28;20405;-69
2022/05/01 01:51:31;;;;;;;6.00;5.40;;;;;;;;;;8163884;28;20034;-68
2022/05/01 01:55:31;;;;;;;6.53;5.35;;;;;;;;;;8162937;28;20259;-68
2022/05/01 01:59:32;;;;;;;6.85;5.47;;;;;;;;;;8165189;28;20145;-69
2022/05/01 02:03:33;;;;;;;7.60;5.28;;;;;;;;;;8160998;28;20032;-68
2022/05/01 02:07:33;;;;;;;9.82;6.13;;;;;;;;;;8161699;28;20027;-69
2022/05/01 02:11:35;;;;;;;10.98;6.00;;;;;;;;;;8161648;28;20039;-69
2022/05/01 02:15:36;;;;;;;10.10;6.07;;;;;;;;;;8161476;28;20039;-69
2022/05/01 02:19:36;;;;;;;12.35;6.50;;;;;;;;;;8159598;28;20031;-69
2022/05/01 02:23:36;;;;;;;7.78;5.68;;;;;;;;;;8159967;28;20030;-69
2022/05/01 02:27:37;;;;;;;10.13;6.22;;;;;;;;;;8161085;28;20107;-69
2022/05/01 02:31:41;;;;;;;11.60;7.00;;;;;;;;;;8156598;28;20089;-68
2022/05/01 02:35:41;;;;;;;9.10;6.50;;;;;;;;;;8164567;28;20105;-69
2022/05/01 02:39:42;;;;;;;15.15;10.80;;;;;;;;;;8163030;28;20043;-68
2022/05/01 02:43:42;;;;;;;12.57;8.27;;;;;;;;;;8162860;28;20042;-69
2022/05/01 02:47:42;;;;;;;8.45;6.28;;;;;;;;;;8161272;28;20039;-69
2022/05/01 02:51:42;;;;;;;7.85;5.63;;;;;;;;;;8160117;28;20043;-69
2022/05/01 02:55:43;;;;;;;6.18;5.45;;;;;;;;;;8162000;28;20031;-69
2022/05/01 02:59:43;;;;;;;6.10;5.07;;;;;;;;;;8158937;28;20646;-68
2022/05/01 03:03:43;;;;;;;7.60;5.67;;;;;;;;;;8172225;28;20066;-68
2022/05/01 03:07:43;;;;;;;7.90;5.03;;;;;;;;;;8160095;28;20260;-69
2022/05/01 03:11:44;;;;;;;6.18;4.90;;;;;;;;;;8174918;28;20293;-68
2022/05/01 03:15:44;;;;;;;5.60;5.00;;;;;;;;;;8159312;28;20049;-69
2022/05/01 03:24:03;;;;;;;6.38;4.82;;;;;;;;;;8160808;28;20727;-68
2022/05/01 03:28:04;;;;;;;5.37;4.70;;;;;;;;;;8160145;28;20489;-69
2022/05/01 03:32:07;;;;;;;6.00;5.15;;;;;;;;;;8159942;28;20854;-69
2022/05/01 03:36:09;;;;;;;5.32;4.45;;;;;;;;;;8156614;28;20081;-69
2022/05/01 03:40:10;;;;;;;6.28;4.45;;;;;;;;;;8158838;28;20098;-68
2022/05/01 03:44:10;;;;;;;6.07;4.40;;;;;;;;;;8162232;28;20118;-68
2022/05/01 03:48:11;;;;;;;5.60;4.70;;;;;;;;;;8164126;28;20059;-68
2022/05/01 03:52:11;;;;;;;6.88;4.15;;;;;;;;;;8165679;28;20035;-69
2022/05/01 03:56:12;;;;;;;8.07;5.95;;;;;;;;;;8164548;28;20032;-69
2022/05/01 04:00:18;;;;;;;10.23;5.65;;;;;;;;;;8163036;28;20110;-68
2022/05/01 04:04:19;;;;;;;20.60;12.57;;;;;;;;;;8165264;28;20023;-69
2022/05/01 04:08:19;;;;;;;38.60;19.90;;;;;;;;;;8170180;28;20373;-69
2022/05/01 04:12:21;;;;;;;48.05;27.83;;;;;;;;;;8179712;28;20027;-68
2022/05/01 04:16:21;;;;;;;22.02;14.10;;;;;;;;;;8167463;28;20598;-68
2022/05/01 04:20:22;;;;;;;14.07;8.43;;;;;;;;;;8177971;28;20019;-68
2022/05/01 04:24:23;;;;;;;11.70;7.10;;;;;;;;;;8164841;28;20019;-69
2022/05/01 04:28:23;;;;;;;9.68;6.63;;;;;;;;;;8166342;28;20129;-69
2022/05/01 04:32:23;;;;;;;10.00;6.53;;;;;;;;;;8164124;28;20164;-68
2022/05/01 04:36:23;;;;;;;9.68;6.80;;;;;;;;;;8165332;28;20035;-68
2022/05/01 04:40:24;;;;;;;7.78;6.28;;;;;;;;;;8162808;28;20030;-68
2022/05/01 04:44:24;;;;;;;8.03;6.77;;;;;;;;;;8163386;28;20030;-69
2022/05/01 04:48:25;;;;;;;8.00;5.97;;;;;;;;;;8162853;28;20031;-68
2022/05/01 04:52:25;;;;;;;8.57;6.20;;;;;;;;;;8161928;28;20701;-68
2022/05/01 05:00:46;;;;;;;8.15;6.22;;;;;;;;;;8161196;28;20916;-68
2022/05/01 05:04:47;;;;;;;8.20;6.10;;;;;;;;;;8161981;28;20031;-68
2022/05/01 05:13:07;;;;;;;14.15;8.02;;;;;;;;;;8166322;28;20105;-69
2022/05/01 05:17:09;;;;;;;8.45;6.35;;;;;;;;;;8160486;28;20786;-69
2022/05/01 05:21:09;;;;;;;12.52;8.07;;;;;;;;;;8160343;28;20070;-69
2022/05/01 05:25:10;;;;;;;10.85;7.28;;;;;;;;;;8162875;28;20027;-69
2022/05/01 05:29:11;;;;;;;9.45;6.72;;;;;;;;;;8160894;28;20251;-69
2022/05/01 05:33:11;;;;;;;8.70;6.63;;;;;;;;;;8163833;28;20559;-69
2022/05/01 05:37:11;;;;;;;8.45;6.30;;;;;;;;;;8165328;28;20038;-69
2022/05/01 05:41:11;;;;;;;9.75;6.40;;;;;;;;;;8161793;28;20040;-69
2022/05/01 05:45:13;;;;;;;10.03;6.97;;;;;;;;;;8160343;28;20047;-70
2022/05/01 05:49:13;;;;;;;10.25;7.10;;;;;;;;;;8158348;28;20484;-69
2022/05/01 05:53:13;;;;;;;9.48;6.50;;;;;;;;;;8172838;28;20066;-69
2022/05/01 05:57:14;;;;;;;7.82;5.95;;;;;;;;;;8156426;28;20032;-69
2022/05/01 06:01:14;;;;;;;9.60;6.53;;;;;;;;;;8156196;28;20226;-69
2022/05/01 06:05:14;;;;;;;11.50;6.70;;;;;;;;;;8165192;28;20035;-69
2022/05/01 06:09:14;;;;;;;8.05;5.97;;;;;;;;;;8157151;28;20263;-70
2022/05/01 06:13:14;;;;;;;7.30;6.10;;;;;;;;;;8156953;28;20023;-70
2022/05/01 06:17:15;;;;;;;9.43;6.00;;;;;;;;;;8157734;28;20081;-70
2022/05/01 06:21:15;;;;;;;8.05;5.68;;;;;;;;;;8152212;28;20035;-70
2022/05/01 06:25:15;;;;;;;6.68;5.25;;;;;;;;;;8171974;28;20031;-70
2022/05/01 06:29:16;;;;;;;6.55;5.43;;;;;;;;;;8155617;28;20631;-70
2022/05/01 06:33:17;;;;;;;12.48;6.88;;;;;;;;;;8157673;28;20465;-70
2022/05/01 06:37:17;;;;;;;7.20;5.50;;;;;;;;;;8158379;28;20037;-70
2022/05/01 06:41:17;;;;;;;8.47;6.20;;;;;;;;;;8158272;28;20118;-70
2022/05/01 06:45:18;;;;;;;8.13;5.25;;;;;;;;;;8158127;28;20031;-70
2022/05/01 06:49:18;;;;;;;8.60;5.93;;;;;;;;;;8156989;28;20027;-70
2022/05/01 06:53:18;;;;;;;8.00;5.63;;;;;;;;;;8155119;28;20035;-70
2022/05/01 06:57:19;;;;;;;11.45;6.35;;;;;;;;;;8158823;28;20034;-70
2022/05/01 07:01:19;;;;;;;9.68;5.95;;;;;;;;;;8156161;28;20043;-70
2022/05/01 07:05:20;;;;;;;9.27;5.80;;;;;;;;;;8155525;28;20663;-70
2022/05/01 07:09:20;;;;;;;7.75;6.25;;;;;;;;;;8158506;28;20023;-70
2022/05/01 07:13:20;;;;;;;6.32;5.70;;;;;;;;;;8171129;28;20037;-70
2022/05/01 07:17:20;;;;;;;7.78;5.75;;;;;;;;;;8160101;28;20150;-70
2022/05/01 07:21:21;;;;;;;7.28;5.53;;;;;;;;;;8163594;28;20027;-70
2022/05/01 07:25:21;;;;;;;7.83;5.40;;;;;;;;;;8165968;28;20445;-70
2022/05/01 07:29:21;;;;;;;7.55;5.65;;;;;;;;;;8153169;28;21022;-70
2022/05/01 07:33:22;;;;;;;9.18;5.75;;;;;;;;;;8164309;28;20075;-70
2022/05/01 07:37:24;;;;;;;8.85;5.80;;;;;;;;;;8166159;28;20029;-70
2022/05/01 07:41:24;;;;;;;6.75;5.63;;;;;;;;;;8162825;28;20027;-70
2022/05/01 07:45:24;;;;;;;5.85;5.07;;;;;;;;;;8163977;28;20114;-70
2022/05/01 07:49:25;;;;;;;6.40;5.45;;;;;;;;;;8161836;28;20030;-70
2022/05/01 07:53:25;;;;;;;8.88;5.30;;;;;;;;;;8163360;28;20035;-70
2022/05/01 07:57:26;;;;;;;7.10;5.43;;;;;;;;;;8160516;28;20486;-70
2022/05/01 08:01:28;;;;;;;8.43;5.82;;;;;;;;;;8159287;28;20063;-70
2022/05/01 08:05:29;;;;;;;8.45;5.80;;;;;;;;;;8169848;28;20030;-70
2022/05/01 08:09:30;;;;;;;7.65;5.13;;;;;;;;;;8165784;28;20031;-70
2022/05/01 08:13:30;;;;;;;6.90;5.50;;;;;;;;;;8161986;28;20042;-70
2022/05/01 08:17:30;;;;;;;7.10;5.60;;;;;;;;;;8164000;28;20535;-70
2022/05/01 08:21:32;;;;;;;11.27;5.82;;;;;;;;;;8161389;28;20154;-70
2022/05/01 08:25:33;;;;;;;9.45;6.05;;;;;;;;;;8162918;28;20059;-70
2022/05/01 08:29:33;;;;;;;7.97;6.27;;;;;;;;;;8162321;28;20039;-70
2022/05/01 08:33:34;;;;;;;9.65;5.88;;;;;;;;;;8149615;28;20290;-70
2022/05/01 08:37:34;;;;;;;9.85;6.25;;;;;;;;;;8158262;28;20318;-70
2022/05/01 08:41:35;;;;;;;7.25;5.95;;;;;;;;;;8158698;28;20081;-72
2022/05/01 08:45:41;;;;;;;6.10;5.50;;;;;;;;;;8159967;28;20034;-69
2022/05/01 08:49:43;;;;;;;7.03;5.85;;;;;;;;;;8159510;28;20027;-73
2022/05/01 08:53:44;;;;;;;9.18;5.63;;;;;;;;;;8159556;28;20023;-73
2022/05/01 08:57:44;;;;;;;6.35;5.63;;;;;;;;;;8159478;28;20870;-73
2022/05/01 09:01:45;;;;;;;10.02;5.80;;;;;;;;;;8173923;28;20586;-73
2022/05/01 09:05:45;;;;;;;9.63;5.63;;;;;;;;;;8167217;28;20118;-73
2022/05/01 09:09:45;;;;;;;7.15;5.53;;;;;;;;;;8160487;28;20034;-73
2022/05/01 09:13:46;;;;;;;7.38;5.50;;;;;;;;;;8156594;28;20026;-72
2022/05/01 09:18:00;;;;;;;7.95;5.22;;;;;;;;;;8159821;28;20051;-73
2022/05/01 09:22:00;;;;;;;6.18;5.22;;;;;;;;;;8159486;28;20023;-73
2022/05/01 09:26:01;;;;;;;6.97;5.40;;;;;;;;;;8158676;28;20041;-73
2022/05/01 09:30:11;;;;;;;9.88;5.63;;;;;;;;;;8158775;28;20062;-72
2022/05/01 09:34:19;;;;;;;10.15;5.05;;;;;;;;;;8159878;28;20043;-72
2022/05/01 09:38:21;;;;;;;7.25;5.40;;;;;;;;;;8158618;28;21016;-72
2022/05/01 09:42:25;;;;;;;8.53;5.50;;;;;;;;;;8172336;28;20026;-73
2022/05/01 09:46:25;;;;;;;7.32;5.45;;;;;;;;;;8146396;28;20046;-73
2022/05/01 09:50:39;;;;;;;5.78;5.28;;;;;;;;;;8153673;28;20035;-72
2022/05/01 09:54:40;;;;;;;6.68;5.05;;;;;;;;;;8158083;28;20031;-72
2022/05/01 09:58:40;;;;;;;5.47;4.93;;;;;;;;;;8158306;28;20138;-72
2022/05/01 10:02:40;;;;;;;6.05;5.18;;;;;;;;;;8155969;28;20054;-72
2022/05/01 10:06:40;;;;;;;8.07;5.18;;;;;;;;;;8161013;28;20027;-71
2022/05/01 10:10:41;;;;;;;6.00;5.40;;;;;;;;;;8160039;28;20073;-72
2022/05/01 10:14:42;;;;;;;7.10;5.50;;;;;;;;;;8157612;28;20023;-72
2022/05/01 10:18:44;;;;;;;10.00;5.38;;;;;;;;;;8156872;28;20369;-72
2022/05/01 10:22:44;;;;;;;6.80;5.63;;;;;;;;;;8157432;28;20830;-72
2022/05/01 10:26:46;;;;;;;7.10;5.78;;;;;;;;;;8160947;28;20110;-71
2022/05/01 10:36:00;;;;;;;6.15;5.30;;;;;;;;;;8142519;28;20078;-71
2022/05/01 10:40:00;;;;;;;6.72;5.28;;;;;;;;;;8156658;28;20487;-72
2022/05/01 10:44:02;;;;;;;8.10;5.80;;;;;;;;;;8157763;28;20029;-73
2022/05/01 10:48:08;;;;;;;8.55;6.05;;;;;;;;;;8158643;28;20043;-72
2022/05/01 10:52:21;;;;;;;8.68;5.30;;;;;;;;;;8157307;28;20027;-72
2022/05/01 10:56:26;;;;;;;5.93;5.30;;;;;;;;;;8164547;28;20023;-71
2022/05/01 11:00:27;;;;;;;8.00;5.63;;;;;;;;;;8162135;28;20040;-71
2022/05/01 11:04:46;;;;;;;7.40;5.57;;;;;;;;;;8167540;28;20066;-69
2022/05/01 11:08:46;;;;;;;9.02;5.80;;;;;;;;;;8166170;28;20049;-78
2022/05/01 11:12:47;;;;;;;8.00;6.55;;;;;;;;;;8165530;28;20035;-79
2022/05/01 11:16:49;;;;;;;9.15;6.32;;;;;;;;;;8158349;28;20169;-69
2022/05/01 11:20:49;;;;;;;8.60;5.72;;;;;;;;;;8162258;28;20033;-70
2022/05/01 11:24:50;;;;;;;8.68;5.45;;;;;;;;;;8161754;28;20114;-70
2022/05/01 11:28:54;;;;;;;6.65;5.82;;;;;;;;;;8164968;28;20050;-70
2022/05/01 11:33:01;;;;;;;8.05;5.93;;;;;;;;;;8176795;28;20074;-70
2022/05/01 11:37:03;;;;;;;9.32;6.10;;;;;;;;;;8164882;28;20110;-71
2022/05/01 11:41:04;;;;;;;9.17;6.80;;;;;;;;;;8162094;28;20035;-71
2022/05/01 11:45:04;;;;;;;9.20;6.70;;;;;;;;;;8160344;28;20050;-71
2022/05/01 11:49:05;;;;;;;10.63;6.80;;;;;;;;;;8162403;28;20023;-71
2022/05/01 11:53:14;;;;;;;8.25;5.75;;;;;;;;;;8160049;28;20046;-71
2022/05/01 12:06:02;;;;;;;9.35;7.50;;;;;;;;;;8160363;28;20706;-70
2022/05/01 12:10:02;;;;;;;10.37;5.87;;;;;;;;;;8163503;28;20126;-70
2022/05/01 12:14:03;;;;;;;7.60;6.37;;;;;;;;;;8161237;28;20356;-70
2022/05/01 12:18:06;;;;;;;11.40;7.18;;;;;;;;;;8164481;28;20727;-70
2022/05/01 12:22:07;;;;;;;8.05;6.72;;;;;;;;;;8161043;28;20161;-70
2022/05/01 12:26:08;;;;;;;8.68;6.00;;;;;;;;;;8163498;28;20031;-70
2022/05/01 12:30:09;;;;;;;6.85;5.72;;;;;;;;;;8161603;28;20046;-70
2022/05/01 12:34:09;;;;;;;8.18;6.18;;;;;;;;;;8163603;28;20028;-70
2022/05/01 12:38:10;;;;;;;7.53;6.20;;;;;;;;;;8164328;28;20393;-70
2022/05/01 12:46:33;;;;;;;8.75;6.20;;;;;;;;;;8164164;28;20090;-70
2022/05/01 12:50:37;;;;;;;7.53;6.22;;;;;;;;;;8159776;28;20035;-70
2022/05/01 12:54:38;;;;;;;6.35;5.57;;;;;;;;;;8159937;28;20110;-71
2022/05/01 12:58:39;;;;;;;7.10;5.35;;;;;;;;;;8159331;28;20755;-70
2022/05/01 13:02:41;;;;;;;9.63;7.10;;;;;;;;;;8158865;28;20086;-70
2022/05/01 13:06:41;;;;;;;8.45;6.10;;;;;;;;;;8157797;28;20026;-70
2022/05/01 13:10:41;;;;;;;8.07;6.20;;;;;;;;;;8174312;28;20027;-70
2022/05/01 13:14:54;;;;;;;10.48;7.00;;;;;;;;;;8155667;28;20283;-70
2022/05/01 13:18:55;;;;;;;10.88;7.53;;;;;;;;;;8157819;28;20035;-70
2022/05/01 13:22:57;;;;;;;8.45;7.10;;;;;;;;;;8159758;28;20022;-70
2022/05/01 13:27:01;;;;;;;9.10;6.70;;;;;;;;;;8159247;28;20781;-71
2022/05/01 13:31:01;;;;;;;;;;;;;;;;;;8173137;28;20050;-71
2022/05/01 13:35:01;;;;;;;7.53;6.63;;;;;;;;;;8159434;28;20448;-71
2022/05/01 13:39:03;;;;;;;7.47;6.70;;;;;;;;;;8158235;28;20019;-71
2022/05/01 13:47:22;;;;;;;11.30;7.05;;;;;;;;;;8159367;28;20090;-70
2022/05/01 13:51:23;;;;;;;8.95;5.95;;;;;;;;;;8156744;28;20031;-71
2022/05/01 13:55:23;;;;;;;9.32;6.95;;;;;;;;;;8158803;28;20030;-71
2022/05/01 13:59:23;;;;;;;7.18;6.43;;;;;;;;;;8159869;28;20062;-72
2022/05/01 14:03:23;;;;;;;7.55;6.35;;;;;;;;;;8156152;28;20050;-71
2022/05/01 14:07:24;;;;;;;9.85;7.75;;;;;;;;;;8158105;28;20141;-72
2022/05/01 14:11:27;;;;;;;8.52;6.45;;;;;;;;;;8157013;28;20032;-71
2022/05/01 14:15:27;;;;;;;8.15;7.07;;;;;;;;;;8157533;28;20413;-71
2022/05/01 14:19:28;;;;;;;8.00;5.90;;;;;;;;;;8157745;28;20038;-71
2022/05/01 14:23:30;;;;;;;7.43;6.47;;;;;;;;;;8156957;28;20031;-71
2022/05/01 14:27:30;;;;;;;7.32;6.40;;;;;;;;;;8172302;28;20075;-70
2022/05/01 14:31:36;;;;;;;11.90;5.68;;;;;;;;;;8157429;28;20547;-71
2022/05/01 14:35:37;;;;;;;9.52;7.03;;;;;;;;;;8158420;28;20054;-71
2022/05/01 14:39:40;;;;;;;7.90;5.65;;;;;;;;;;8158252;28;20026;-70
2022/05/01 14:43:43;;;;;;;8.23;7.13;;;;;;;;;;8157932;28;20071;-71
2022/05/01 14:47:52;;;;;;;9.30;6.77;;;;;;;;;;8158485;28;20043;-71
2022/05/01 14:51:58;;;;;;;9.85;7.13;;;;;;;;;;8156060;28;20050;-71
2022/05/01 14:55:59;;;;;;;8.20;6.45;;;;;;;;;;8157011;28;20027;-71
2022/05/01 15:08:39;;;;;;;9.27;7.57;;;;;;;;;;8157965;28;20082;-71
2022/05/01 15:12:39;;;;;;;8.18;6.65;;;;;;;;;;8157801;28;20027;-70
2022/05/01 15:16:42;;;;;;;8.23;6.80;;;;;;;;;;8155907;28;20075;-70
2022/05/01 15:20:48;;;;;;;7.47;6.63;;;;;;;;;;8155821;28;20033;-71
2022/05/01 15:25:08;;;;;;;10.57;7.82;;;;;;;;;;8158727;28;20030;-71
2022/05/01 15:29:08;;;;;;;8.50;6.97;;;;;;;;;;8158038;28;20499;-72
2022/05/01 15:37:35;;;;;;;8.10;7.10;;;;;;;;;;8159279;28;20027;-71
2022/05/01 15:41:47;;;;;;;8.93;6.95;;;;;;;;;;8162587;28;20034;-70
2022/05/01 15:45:58;;;;;;;10.38;8.00;;;;;;;;;;8163145;28;20035;-70
2022/05/01 15:54:18;;;;;;;6.00;5.13;;;;;;;;;;8162998;28;20229;-70
2022/05/01 15:58:22;;;;;;;8.30;6.83;;;;;;;;;;8160883;28;20047;-72
2022/05/01 16:02:23;;;;;;;8.68;6.07;;;;;;;;;;8161425;28;20040;-72
2022/05/01 16:06:23;;;;;;;8.57;7.40;;;;;;;;;;8159419;28;20031;-72
2022/05/01 16:10:41;;;;;;;8.30;7.13;;;;;;;;;;8161202;28;20947;-72
2022/05/01 16:15:03;;;;;;;9.80;8.18;;;;;;;;;;8173814;28;20027;-73
2022/05/01 16:19:10;;;;;;;8.60;6.93;;;;;;;;;;8173078;28;20133;-72
2022/05/01 16:23:27;;;;;;;9.75;8.23;;;;;;;;;;8161083;28;20887;-73
2022/05/01 16:27:29;;;;;;;8.68;7.47;;;;;;;;;;8159629;28;20023;-72
2022/05/01 16:31:34;;;;;;;9.38;7.25;;;;;;;;;;8160575;28;20027;-73
2022/05/01 16:35:40;;;;;;;8.77;6.50;;;;;;;;;;8167118;28;20067;-73
2022/05/01 16:39:43;;;;;;;8.52;7.07;;;;;;;;;;8164810;28;20051;-72
2022/05/01 16:43:43;;;;;;;8.30;7.33;;;;;;;;;;8157777;28;20172;-71
2022/05/01 16:47:45;;;;;;;9.05;7.47;;;;;;;;;;8158432;28;20113;-71
2022/05/01 16:51:46;;;;;;;10.48;7.45;;;;;;;;;;8163226;28;20096;-72
2022/05/01 16:55:47;;;;;;;7.68;6.65;;;;;;;;;;8161044;28;20023;-72
2022/05/01 16:59:49;;;;;;;6.78;6.00;;;;;;;;;;8160440;28;20033;-72
2022/05/01 17:03:51;;;;;;;6.70;6.00;;;;;;;;;;8157130;28;20074;-72
2022/05/01 17:08:10;;;;;;;8.18;6.93;;;;;;;;;;8160011;28;20027;-72
2022/05/01 17:12:15;;;;;;;9.18;6.30;;;;;;;;;;8158737;28;20118;-72
2022/05/01 17:16:21;;;;;;;8.75;6.80;;;;;;;;;;8163367;28;20045;-72
2022/05/01 17:20:22;;;;;;;8.60;5.85;;;;;;;;;;8149135;28;20800;-72
2022/05/01 17:24:31;;;;;;;8.15;5.72;;;;;;;;;;8161146;28;20065;-72
2022/05/01 17:28:35;;;;;;;7.45;5.72;;;;;;;;;;8160699;28;20022;-72
2022/05/01 17:32:36;;;;;;;7.70;6.55;;;;;;;;;;8156491;28;20058;-72
2022/05/01 17:36:37;;;;;;;9.07;6.13;;;;;;;;;;8155655;28;20027;-72
2022/05/01 17:40:38;;;;;;;7.10;6.40;;;;;;;;;;8156672;28;20027;-72
2022/05/01 17:44:39;;;;;;;7.68;5.93;;;;;;;;;;8158835;28;20023;-72
2022/05/01 17:48:46;;;;;;;7.35;6.35;;;;;;;;;;8159925;28;20440;-72
2022/05/01 17:52:48;;;;;;;7.30;5.72;;;;;;;;;;8160278;28;20026;-71
2022/05/01 17:56:48;;;;;;;6.88;5.53;;;;;;;;;;8158315;28;20027;-72
2022/05/01 18:01:03;;;;;;;8.52;5.47;;;;;;;;;;8157135;28;20050;-72
2022/05/01 18:14:06;;;;;;;7.72;6.45;;;;;;;;;;8156650;28;20400;-71
2022/05/01 18:18:25;;;;;;;5.30;4.80;;;;;;;;;;8155535;28;20067;-71
2022/05/01 18:22:31;;;;;;;6.45;5.20;;;;;;;;;;8154776;28;20564;-71
2022/05/01 18:26:51;;;;;;;5.38;4.63;;;;;;;;;;8155753;28;20027;-71
2022/05/01 18:31:13;;;;;;;6.80;4.70;;;;;;;;;;8155825;28;20057;-71
2022/05/01 18:35:18;;;;;;;6.78;6.07;;;;;;;;;;8163898;28;20069;-71
2022/05/01 18:39:22;;;;;;;8.90;6.47;;;;;;;;;;8157704;28;20030;-71
2022/05/01 18:43:24;;;;;;;8.18;6.45;;;;;;;;;;8154741;28;20031;-72
2022/05/01 18:47:25;;;;;;;9.85;7.30;;;;;;;;;;8157149;28;20042;-71
2022/05/01 18:51:28;;;;;;;9.65;7.07;;;;;;;;;;8156207;28;20728;-71
2022/05/01 18:55:30;;;;;;;8.50;6.55;;;;;;;;;;8156643;28;20031;-71
2022/05/01 18:59:33;;;;;;;11.07;6.53;;;;;;;;;;8155604;28;20035;-71
2022/05/01 19:03:34;;;;;;;7.50;5.70;;;;;;;;;;8155792;28;20081;-72
2022/05/01 19:07:44;;;;;;;8.82;5.30;;;;;;;;;;8157018;28;20174;-71
2022/05/01 19:11:47;;;;;;;7.22;5.07;;;;;;;;;;8154182;28;20230;-71
2022/05/01 19:16:14;;;;;;;7.50;5.70;;;;;;;;;;8161265;28;20035;-71
2022/05/01 19:20:41;;;;;;;7.85;4.65;;;;;;;;;;8135038;28;20281;-71
2022/05/01 19:29:12;;;;;;;6.80;4.25;;;;;;;;;;8163344;28;20755;-71
2022/05/01 19:33:18;;;;;;;5.18;4.32;;;;;;;;;;8164039;28;20043;-70
2022/05/01 19:37:23;;;;;;;5.25;4.30;;;;;;;;;;8168187;28;20677;-69
2022/05/01 19:41:23;;;;;;;4.90;3.95;;;;;;;;;;8165635;28;20392;-70
2022/05/01 19:45:43;;;;;;;8.00;4.57;;;;;;;;;;8159795;28;20039;-69
2022/05/01 19:54:17;;;;;;;6.30;4.68;;;;;;;;;;8164694;28;20045;-70
2022/05/01 19:58:19;;;;;;;8.73;6.40;;;;;;;;;;8165806;28;20039;-70
2022/05/01 20:02:21;;;;;;;12.07;6.70;;;;;;;;;;8161058;28;20278;-70
2022/05/01 20:06:21;;;;;;;7.95;5.13;;;;;;;;;;8168758;28;20024;-70
2022/05/01 20:10:22;;;;;;;6.18;4.45;;;;;;;;;;8163895;28;20057;-70
2022/05/01 20:14:22;;;;;;;7.45;5.13;;;;;;;;;;8164619;28;20026;-70
2022/05/01 20:18:34;;;;;;;8.55;5.13;;;;;;;;;;8162903;28;20039;-70
2022/05/01 20:22:44;;;;;;;5.15;4.65;;;;;;;;;;8160878;28;20027;-70
2022/05/01 20:26:49;;;;;;;4.50;4.10;;;;;;;;;;8161315;28;20058;-70
2022/05/01 20:31:03;;;;;;;5.05;4.55;;;;;;;;;;8161189;28;20513;-70
2022/05/01 20:35:06;;;;;;;5.75;4.15;;;;;;;;;;8166850;28;20035;-70
2022/05/01 20:39:09;;;;;;;6.70;4.45;;;;;;;;;;8165346;28;20656;-70
2022/05/01 20:43:18;;;;;;;5.82;4.55;;;;;;;;;;8166559;28;20057;-70
2022/05/01 20:47:39;;;;;;;5.13;4.13;;;;;;;;;;8163321;28;20036;-70
2022/05/01 20:51:42;;;;;;;5.00;4.32;;;;;;;;;;8159865;28;20187;-70
2022/05/01 20:55:42;;;;;;;4.88;4.07;;;;;;;;;;8163316;28;20493;-70
2022/05/01 20:59:42;;;;;;;7.75;4.03;;;;;;;;;;8166081;28;20733;-70
2022/05/01 21:03:45;;;;;;;4.57;3.80;;;;;;;;;;8161453;28;20039;-70
2022/05/01 21:07:46;;;;;;;4.75;4.18;;;;;;;;;;8163439;28;20030;-70
2022/05/01 21:11:48;;;;;;;6.70;4.78;;;;;;;;;;8162036;28;20035;-70
2022/05/01 21:15:48;;;;;;;5.72;4.38;;;;;;;;;;8160390;28;20035;-70
2022/05/01 21:19:48;;;;;;;4.73;4.33;;;;;;;;;;8160398;28;20186;-69
2022/05/01 21:23:48;;;;;;;4.18;3.75;;;;;;;;;;8163263;28;20023;-70
2022/05/01 21:27:48;;;;;;;4.13;3.80;;;;;;;;;;8162578;28;20031;-70
2022/05/01 21:36:07;;;;;;;10.65;4.97;;;;;;;;;;8164266;28;20109;-70
2022/05/01 21:40:08;;;;;;;7.47;4.57;;;;;;;;;;8164766;28;20027;-70
2022/05/01 21:44:08;;;;;;;5.45;4.95;;;;;;;;;;8163212;28;20026;-70
2022/05/01 21:48:08;;;;;;;6.60;4.88;;;;;;;;;;8160184;28;20040;-70
2022/05/01 21:52:09;;;;;;;5.13;4.63;;;;;;;;;;8167329;28;20042;-70
2022/05/01 21:56:09;;;;;;;7.22;4.88;;;;;;;;;;8160372;28;20032;-70
2022/05/01 22:00:11;;;;;;;5.37;4.30;;;;;;;;;;8161667;28;20027;-70
2022/05/01 22:04:13;;;;;;;6.45;4.28;;;;;;;;;;8165699;28;20341;-70
2022/05/01 22:08:13;;;;;;;5.18;4.50;;;;;;;;;;8163127;28;20364;-70
2022/05/01 22:12:13;;;;;;;4.90;4.40;;;;;;;;;;8162660;28;20026;-70
2022/05/01 22:16:13;;;;;;;5.85;4.50;;;;;;;;;;8162534;28;20047;-70
2022/05/01 22:20:15;;;;;;;5.60;4.75;;;;;;;;;;8155532;28;20026;-70
2022/05/01 22:24:15;;;;;;;6.43;4.65;;;;;;;;;;8160920;28;20035;-70
2022/05/01 22:28:16;;;;;;;7.35;5.15;;;;;;;;;;8159453;28;20039;-69
2022/05/01 22:32:16;;;;;;;8.48;5.03;;;;;;;;;;8159143;28;20404;-69
2022/05/01 22:40:36;;;;;;;6.05;4.85;;;;;;;;;;8159852;28;20157;-70
2022/05/01 22:44:36;;;;;;;7.28;5.32;;;;;;;;;;8159511;28;20085;-69
2022/05/01 22:48:37;;;;;;;7.45;5.22;;;;;;;;;;8160805;28;20122;-70
2022/05/01 22:52:38;;;;;;;6.15;5.40;;;;;;;;;;8165595;28;20166;-70
2022/05/01 22:56:38;;;;;;;7.50;6.45;;;;;;;;;;8162447;28;20039;-70
2022/05/01 23:00:38;;;;;;;8.68;6.40;;;;;;;;;;8162994;28;20646;-70
2022/05/01 23:04:39;;;;;;;9.23;6.18;;;;;;;;;;8160219;28;20031;-69
2022/05/01 23:08:40;;;;;;;6.63;5.72;;;;;;;;;;8163555;28;20020;-70
2022/05/01 23:12:41;;;;;;;8.82;5.60;;;;;;;;;;8159569;28;20027;-70
2022/05/01 23:16:41;;;;;;;7.63;5.95;;;;;;;;;;8161998;28;20755;-70
2022/05/01 23:20:54;;;;;;;7.60;6.28;;;;;;;;;;8157739;28;20031;-70
2022/05/01 23:24:54;;;;;;;6.53;5.65;;;;;;;;;;8159194;28;20034;-70
2022/05/01 23:28:54;;;;;;;9.05;6.07;;;;;;;;;;8161275;28;20103;-70
2022/05/01 23:32:55;;;;;;;11.32;5.38;;;;;;;;;;8161181;28;20040;-70
2022/05/01 23:36:55;;;;;;;7.20;5.72;;;;;;;;;;8160056;28;20035;-70
2022/05/01 23:40:55;;;;;;;9.25;5.85;;;;;;;;;;8162861;28;20101;-70
2022/05/01 23:44:55;;;;;;;6.77;5.13;;;;;;;;;;8161422;28;21400;-70
2022/05/01 23:48:55;;;;;;;6.82;5.53;;;;;;;;;;8159201;28;20284;-70
2022/05/01 23:52:56;;;;;;;6.10;5.03;;;;;;;;;;8169179;28;20086;-70
2022/05/01 23:56:56;;;;;;;6.72;5.20;;;;;;;;;;8161215;28;20038;-69
